sensor_id;sensor_type;location;lat;lon;timestamp;P1;durP1;ratioP1;P2;durP2;ratioP2
13244;SDS011;6689;53.400;12.486;2022-12-20T00:00:05;28.83;;;18.17;;
13244;SDS011;6689;53.400;12.486;2022-12-20T00:02:35;30.77;;;18.35;;
13244;SDS011;6689;53.400;12.486;2022-12-20T00:05:03;33.80;;;19.27;;
13244;SDS011;6689;53.400;12.486;2022-12-20T00:07:31;29.98;;;19.27;;
13244;SDS011;6689;53.400;12.486;2022-12-20T00:09:58;33.72;;;19.25;;
13244;SDS011;6689;53.400;12.486;2022-12-20T00:12:25;33.38;;;19.13;;
13244;SDS011;6689;53.400;12.486;2022-12-20T00:14:52;33.15;;;20.85;;
13244;SDS011;6689;53.400;12.486;2022-12-20T00:17:20;35.35;;;19.90;;
13244;SDS011;6689;53.400;12.486;2022-12-20T00:19:48;32.50;;;19.73;;
13244;SDS011;6689;53.400;12.486;2022-12-20T00:22:16;35.35;;;19.60;;
13244;SDS011;6689;53.400;12.486;2022-12-20T00:24:43;32.58;;;19.02;;
13244;SDS011;6689;53.400;12.486;2022-12-20T00:27:11;32.67;;;18.70;;
13244;SDS011;6689;53.400;12.486;2022-12-20T00:29:38;30.08;;;20.08;;
13244;SDS011;6689;53.400;12.486;2022-12-20T00:32:08;28.95;;;18.17;;
13244;SDS011;6689;53.400;12.486;2022-12-20T00:34:35;34.28;;;19.42;;
13244;SDS011;6689;53.400;12.486;2022-12-20T00:37:04;28.52;;;18.13;;
13244;SDS011;6689;53.400;12.486;2022-12-20T00:39:32;29.88;;;17.50;;
13244;SDS011;6689;53.400;12.486;2022-12-20T00:41:59;29.88;;;17.58;;
13244;SDS011;6689;53.400;12.486;2022-12-20T00:44:26;30.98;;;18.15;;
13244;SDS011;6689;53.400;12.486;2022-12-20T00:46:54;28.45;;;18.85;;
13244;SDS011;6689;53.400;12.486;2022-12-20T00:49:21;32.60;;;18.98;;
13244;SDS011;6689;53.400;12.486;2022-12-20T00:51:48;30.58;;;16.98;;
13244;SDS011;6689;53.400;12.486;2022-12-20T00:54:16;30.70;;;17.98;;
13244;SDS011;6689;53.400;12.486;2022-12-20T00:56:44;33.05;;;18.20;;
13244;SDS011;6689;53.400;12.486;2022-12-20T00:59:11;31.17;;;19.05;;
13244;SDS011;6689;53.400;12.486;2022-12-20T01:01:38;32.70;;;18.60;;
13244;SDS011;6689;53.400;12.486;2022-12-20T01:04:05;37.25;;;20.33;;
13244;SDS011;6689;53.400;12.486;2022-12-20T01:06:33;28.98;;;17.63;;
13244;SDS011;6689;53.400;12.486;2022-12-20T01:09:00;33.92;;;19.80;;
13244;SDS011;6689;53.400;12.486;2022-12-20T01:11:31;35.17;;;18.92;;
13244;SDS011;6689;53.400;12.486;2022-12-20T01:14:00;30.10;;;19.45;;
13244;SDS011;6689;53.400;12.486;2022-12-20T01:16:29;31.08;;;19.50;;
13244;SDS011;6689;53.400;12.486;2022-12-20T01:18:58;29.40;;;18.20;;
13244;SDS011;6689;53.400;12.486;2022-12-20T01:21:25;29.27;;;18.65;;
13244;SDS011;6689;53.400;12.486;2022-12-20T01:23:53;30.83;;;19.08;;
13244;SDS011;6689;53.400;12.486;2022-12-20T01:26:22;33.60;;;19.55;;
13244;SDS011;6689;53.400;12.486;2022-12-20T01:28:53;28.00;;;16.95;;
13244;SDS011;6689;53.400;12.486;2022-12-20T01:31:23;30.50;;;17.55;;
13244;SDS011;6689;53.400;12.486;2022-12-20T01:33:51;29.83;;;18.50;;
13244;SDS011;6689;53.400;12.486;2022-12-20T01:36:19;30.52;;;17.83;;
13244;SDS011;6689;53.400;12.486;2022-12-20T01:38:59;31.35;;;17.73;;
13244;SDS011;6689;53.400;12.486;2022-12-20T01:41:27;28.70;;;17.45;;
13244;SDS011;6689;53.400;12.486;2022-12-20T01:43:59;27.90;;;15.70;;
13244;SDS011;6689;53.400;12.486;2022-12-20T01:46:28;29.38;;;18.02;;
13244;SDS011;6689;53.400;12.486;2022-12-20T01:48:57;27.83;;;17.55;;
13244;SDS011;6689;53.400;12.486;2022-12-20T01:51:28;29.15;;;17.17;;
13244;SDS011;6689;53.400;12.486;2022-12-20T01:54:00;30.38;;;16.58;;
13244;SDS011;6689;53.400;12.486;2022-12-20T01:56:31;29.83;;;17.92;;
13244;SDS011;6689;53.400;12.486;2022-12-20T01:59:00;37.25;;;20.77;;
13244;SDS011;6689;53.400;12.486;2022-12-20T02:01:28;28.70;;;18.50;;
13244;SDS011;6689;53.400;12.486;2022-12-20T02:03:55;32.55;;;18.35;;
13244;SDS011;6689;53.400;12.486;2022-12-20T02:06:24;30.50;;;18.95;;
13244;SDS011;6689;53.400;12.486;2022-12-20T02:08:53;31.20;;;18.45;;
13244;SDS011;6689;53.400;12.486;2022-12-20T02:14:25;28.02;;;17.33;;
13244;SDS011;6689;53.400;12.486;2022-12-20T02:17:09;28.45;;;16.75;;
13244;SDS011;6689;53.400;12.486;2022-12-20T02:19:53;30.15;;;18.05;;
13244;SDS011;6689;53.400;12.486;2022-12-20T02:22:45;32.20;;;18.15;;
13244;SDS011;6689;53.400;12.486;2022-12-20T02:25:41;31.05;;;19.00;;
13244;SDS011;6689;53.400;12.486;2022-12-20T02:28:27;29.73;;;17.30;;
13244;SDS011;6689;53.400;12.486;2022-12-20T02:31:09;29.20;;;17.55;;
13244;SDS011;6689;53.400;12.486;2022-12-20T02:33:39;34.95;;;18.42;;
13244;SDS011;6689;53.400;12.486;2022-12-20T02:36:09;29.63;;;18.27;;
13244;SDS011;6689;53.400;12.486;2022-12-20T02:38:36;33.60;;;18.98;;
13244;SDS011;6689;53.400;12.486;2022-12-20T02:41:06;31.63;;;18.83;;
13244;SDS011;6689;53.400;12.486;2022-12-20T02:43:37;31.13;;;17.92;;
13244;SDS011;6689;53.400;12.486;2022-12-20T02:46:26;27.40;;;17.45;;
13244;SDS011;6689;53.400;12.486;2022-12-20T02:48:55;28.80;;;18.92;;
13244;SDS011;6689;53.400;12.486;2022-12-20T02:51:26;31.20;;;18.48;;
13244;SDS011;6689;53.400;12.486;2022-12-20T02:53:57;31.88;;;18.83;;
13244;SDS011;6689;53.400;12.486;2022-12-20T02:56:26;28.77;;;18.00;;
13244;SDS011;6689;53.400;12.486;2022-12-20T02:58:58;32.67;;;19.13;;
13244;SDS011;6689;53.400;12.486;2022-12-20T03:01:33;31.80;;;18.80;;
13244;SDS011;6689;53.400;12.486;2022-12-20T03:04:04;30.88;;;18.65;;
13244;SDS011;6689;53.400;12.486;2022-12-20T03:06:33;30.17;;;18.55;;
13244;SDS011;6689;53.400;12.486;2022-12-20T03:09:01;31.05;;;18.08;;
13244;SDS011;6689;53.400;12.486;2022-12-20T03:11:29;28.77;;;18.33;;
13244;SDS011;6689;53.400;12.486;2022-12-20T03:13:56;29.50;;;18.35;;
13244;SDS011;6689;53.400;12.486;2022-12-20T03:16:23;28.60;;;17.85;;
13244;SDS011;6689;53.400;12.486;2022-12-20T03:18:52;25.38;;;16.88;;
13244;SDS011;6689;53.400;12.486;2022-12-20T03:21:19;29.65;;;18.90;;
13244;SDS011;6689;53.400;12.486;2022-12-20T03:23:47;31.58;;;18.98;;
13244;SDS011;6689;53.400;12.486;2022-12-20T03:26:14;36.65;;;19.23;;
13244;SDS011;6689;53.400;12.486;2022-12-20T03:28:41;26.05;;;16.33;;
13244;SDS011;6689;53.400;12.486;2022-12-20T03:31:08;30.02;;;17.92;;
13244;SDS011;6689;53.400;12.486;2022-12-20T03:33:36;27.58;;;17.98;;
13244;SDS011;6689;53.400;12.486;2022-12-20T03:36:05;26.75;;;16.13;;
13244;SDS011;6689;53.400;12.486;2022-12-20T03:38:32;25.02;;;17.05;;
13244;SDS011;6689;53.400;12.486;2022-12-20T03:41:00;28.70;;;17.45;;
13244;SDS011;6689;53.400;12.486;2022-12-20T03:43:27;30.02;;;17.83;;
13244;SDS011;6689;53.400;12.486;2022-12-20T03:45:54;25.83;;;16.35;;
13244;SDS011;6689;53.400;12.486;2022-12-20T03:48:21;29.95;;;17.40;;
13244;SDS011;6689;53.400;12.486;2022-12-20T03:50:49;25.30;;;16.60;;
13244;SDS011;6689;53.400;12.486;2022-12-20T03:53:18;27.92;;;18.98;;
13244;SDS011;6689;53.400;12.486;2022-12-20T03:55:46;27.83;;;17.80;;
13244;SDS011;6689;53.400;12.486;2022-12-20T03:58:13;29.05;;;16.20;;
13244;SDS011;6689;53.400;12.486;2022-12-20T04:00:40;30.25;;;17.23;;
13244;SDS011;6689;53.400;12.486;2022-12-20T04:03:08;27.05;;;16.35;;
13244;SDS011;6689;53.400;12.486;2022-12-20T04:05:35;28.80;;;16.63;;
13244;SDS011;6689;53.400;12.486;2022-12-20T04:08:03;30.67;;;18.13;;
13244;SDS011;6689;53.400;12.486;2022-12-20T04:13:20;27.13;;;17.13;;
13244;SDS011;6689;53.400;12.486;2022-12-20T04:15:48;31.15;;;17.55;;
13244;SDS011;6689;53.400;12.486;2022-12-20T04:18:15;31.77;;;19.13;;
13244;SDS011;6689;53.400;12.486;2022-12-20T04:20:44;29.20;;;17.15;;
13244;SDS011;6689;53.400;12.486;2022-12-20T04:23:11;29.55;;;18.13;;
13244;SDS011;6689;53.400;12.486;2022-12-20T04:25:40;26.60;;;17.58;;
13244;SDS011;6689;53.400;12.486;2022-12-20T04:28:07;30.80;;;17.42;;
13244;SDS011;6689;53.400;12.486;2022-12-20T04:30:35;28.45;;;18.38;;
13244;SDS011;6689;53.400;12.486;2022-12-20T04:33:02;24.48;;;17.25;;
13244;SDS011;6689;53.400;12.486;2022-12-20T04:35:29;23.92;;;16.55;;
13244;SDS011;6689;53.400;12.486;2022-12-20T04:37:57;33.65;;;17.45;;
13244;SDS011;6689;53.400;12.486;2022-12-20T04:40:24;30.30;;;18.08;;
13244;SDS011;6689;53.400;12.486;2022-12-20T04:42:53;28.48;;;17.10;;
13244;SDS011;6689;53.400;12.486;2022-12-20T04:45:20;28.35;;;17.02;;
13244;SDS011;6689;53.400;12.486;2022-12-20T04:47:47;29.38;;;17.38;;
13244;SDS011;6689;53.400;12.486;2022-12-20T04:50:14;31.65;;;18.40;;
13244;SDS011;6689;53.400;12.486;2022-12-20T04:52:43;28.13;;;18.83;;
13244;SDS011;6689;53.400;12.486;2022-12-20T04:55:27;27.40;;;16.45;;
13244;SDS011;6689;53.400;12.486;2022-12-20T04:57:56;29.17;;;16.55;;
13244;SDS011;6689;53.400;12.486;2022-12-20T05:00:23;30.67;;;18.33;;
13244;SDS011;6689;53.400;12.486;2022-12-20T05:02:51;30.55;;;16.98;;
13244;SDS011;6689;53.400;12.486;2022-12-20T05:05:18;29.27;;;17.08;;
13244;SDS011;6689;53.400;12.486;2022-12-20T05:07:45;27.55;;;16.80;;
13244;SDS011;6689;53.400;12.486;2022-12-20T05:10:12;27.02;;;16.58;;
13244;SDS011;6689;53.400;12.486;2022-12-20T05:12:40;27.77;;;17.25;;
13244;SDS011;6689;53.400;12.486;2022-12-20T05:15:09;23.92;;;16.23;;
13244;SDS011;6689;53.400;12.486;2022-12-20T05:17:36;27.55;;;17.45;;
13244;SDS011;6689;53.400;12.486;2022-12-20T05:20:07;25.48;;;17.55;;
13244;SDS011;6689;53.400;12.486;2022-12-20T05:22:35;28.33;;;17.95;;
13244;SDS011;6689;53.400;12.486;2022-12-20T05:25:19;30.30;;;18.42;;
13244;SDS011;6689;53.400;12.486;2022-12-20T05:28:04;27.50;;;17.00;;
13244;SDS011;6689;53.400;12.486;2022-12-20T05:30:33;28.75;;;18.05;;
13244;SDS011;6689;53.400;12.486;2022-12-20T05:33:00;29.63;;;17.85;;
13244;SDS011;6689;53.400;12.486;2022-12-20T05:35:28;25.58;;;17.73;;
13244;SDS011;6689;53.400;12.486;2022-12-20T05:37:55;28.85;;;18.38;;
13244;SDS011;6689;53.400;12.486;2022-12-20T05:40:23;32.10;;;18.58;;
13244;SDS011;6689;53.400;12.486;2022-12-20T05:42:50;29.00;;;18.35;;
13244;SDS011;6689;53.400;12.486;2022-12-20T05:45:17;30.67;;;18.85;;
13244;SDS011;6689;53.400;12.486;2022-12-20T05:47:46;27.55;;;18.90;;
13244;SDS011;6689;53.400;12.486;2022-12-20T05:50:13;25.23;;;16.60;;
13244;SDS011;6689;53.400;12.486;2022-12-20T05:52:41;28.88;;;18.48;;
13244;SDS011;6689;53.400;12.486;2022-12-20T05:55:08;29.42;;;17.90;;
13244;SDS011;6689;53.400;12.486;2022-12-20T05:57:36;32.40;;;18.42;;
13244;SDS011;6689;53.400;12.486;2022-12-20T06:00:03;30.52;;;18.77;;
13244;SDS011;6689;53.400;12.486;2022-12-20T06:02:35;24.45;;;16.75;;
13244;SDS011;6689;53.400;12.486;2022-12-20T06:05:03;28.25;;;17.52;;
13244;SDS011;6689;53.400;12.486;2022-12-20T06:07:31;30.25;;;17.05;;
13244;SDS011;6689;53.400;12.486;2022-12-20T06:09:58;28.05;;;17.55;;
13244;SDS011;6689;53.400;12.486;2022-12-20T06:12:25;33.75;;;18.13;;
13244;SDS011;6689;53.400;12.486;2022-12-20T06:14:53;31.60;;;18.95;;
13244;SDS011;6689;53.400;12.486;2022-12-20T06:17:21;30.70;;;18.20;;
13244;SDS011;6689;53.400;12.486;2022-12-20T06:19:48;29.05;;;18.75;;
13244;SDS011;6689;53.400;12.486;2022-12-20T06:22:17;27.40;;;18.25;;
13244;SDS011;6689;53.400;12.486;2022-12-20T06:24:44;29.60;;;18.52;;
13244;SDS011;6689;53.400;12.486;2022-12-20T06:27:11;31.00;;;17.83;;
13244;SDS011;6689;53.400;12.486;2022-12-20T06:29:38;30.92;;;18.63;;
13244;SDS011;6689;53.400;12.486;2022-12-20T06:32:13;35.78;;;18.63;;
13244;SDS011;6689;53.400;12.486;2022-12-20T06:34:40;31.08;;;18.60;;
13244;SDS011;6689;53.400;12.486;2022-12-20T06:37:07;29.17;;;18.02;;
13244;SDS011;6689;53.400;12.486;2022-12-20T06:39:39;28.92;;;18.23;;
13244;SDS011;6689;53.400;12.486;2022-12-20T06:42:07;32.60;;;18.63;;
13244;SDS011;6689;53.400;12.486;2022-12-20T06:44:34;31.17;;;18.50;;
13244;SDS011;6689;53.400;12.486;2022-12-20T06:47:01;30.77;;;17.90;;
13244;SDS011;6689;53.400;12.486;2022-12-20T06:49:29;30.92;;;19.20;;
13244;SDS011;6689;53.400;12.486;2022-12-20T06:51:56;32.38;;;19.98;;
13244;SDS011;6689;53.400;12.486;2022-12-20T06:54:23;25.83;;;17.15;;
13244;SDS011;6689;53.400;12.486;2022-12-20T06:56:52;30.92;;;19.10;;
13244;SDS011;6689;53.400;12.486;2022-12-20T06:59:19;29.55;;;18.90;;
13244;SDS011;6689;53.400;12.486;2022-12-20T07:01:51;26.95;;;19.08;;
13244;SDS011;6689;53.400;12.486;2022-12-20T07:04:18;32.90;;;19.15;;
13244;SDS011;6689;53.400;12.486;2022-12-20T07:06:46;29.10;;;18.63;;
13244;SDS011;6689;53.400;12.486;2022-12-20T07:09:13;30.27;;;17.98;;
13244;SDS011;6689;53.400;12.486;2022-12-20T07:11:43;28.33;;;18.02;;
13244;SDS011;6689;53.400;12.486;2022-12-20T07:14:12;33.38;;;19.45;;
13244;SDS011;6689;53.400;12.486;2022-12-20T07:16:39;28.45;;;18.58;;
13244;SDS011;6689;53.400;12.486;2022-12-20T07:19:09;28.33;;;18.15;;
13244;SDS011;6689;53.400;12.486;2022-12-20T07:21:37;30.20;;;18.95;;
13244;SDS011;6689;53.400;12.486;2022-12-20T07:24:06;29.80;;;19.15;;
13244;SDS011;6689;53.400;12.486;2022-12-20T07:26:33;31.60;;;17.15;;
13244;SDS011;6689;53.400;12.486;2022-12-20T07:29:01;30.70;;;18.38;;
13244;SDS011;6689;53.400;12.486;2022-12-20T07:31:30;30.50;;;19.25;;
13244;SDS011;6689;53.400;12.486;2022-12-20T07:33:57;31.63;;;19.25;;
13244;SDS011;6689;53.400;12.486;2022-12-20T07:36:24;34.78;;;19.42;;
13244;SDS011;6689;53.400;12.486;2022-12-20T07:38:52;32.45;;;17.70;;
13244;SDS011;6689;53.400;12.486;2022-12-20T07:41:19;31.33;;;18.52;;
13244;SDS011;6689;53.400;12.486;2022-12-20T07:43:46;32.33;;;18.77;;
13244;SDS011;6689;53.400;12.486;2022-12-20T07:46:14;33.05;;;19.60;;
13244;SDS011;6689;53.400;12.486;2022-12-20T07:48:43;36.65;;;20.48;;
13244;SDS011;6689;53.400;12.486;2022-12-20T07:51:11;38.00;;;21.08;;
13244;SDS011;6689;53.400;12.486;2022-12-20T07:53:43;35.78;;;20.33;;
13244;SDS011;6689;53.400;12.486;2022-12-20T07:56:14;35.28;;;21.05;;
13244;SDS011;6689;53.400;12.486;2022-12-20T07:58:43;39.95;;;20.73;;
13244;SDS011;6689;53.400;12.486;2022-12-20T08:01:11;38.63;;;22.35;;
13244;SDS011;6689;53.400;12.486;2022-12-20T08:03:40;37.85;;;22.25;;
13244;SDS011;6689;53.400;12.486;2022-12-20T08:06:15;38.55;;;21.35;;
13244;SDS011;6689;53.400;12.486;2022-12-20T08:08:45;40.15;;;20.58;;
13244;SDS011;6689;53.400;12.486;2022-12-20T08:11:19;42.53;;;22.85;;
13244;SDS011;6689;53.400;12.486;2022-12-20T08:13:47;41.17;;;22.20;;
13244;SDS011;6689;53.400;12.486;2022-12-20T08:16:15;41.70;;;22.52;;
13244;SDS011;6689;53.400;12.486;2022-12-20T08:18:44;41.95;;;22.85;;
13244;SDS011;6689;53.400;12.486;2022-12-20T08:21:11;40.17;;;22.83;;
13244;SDS011;6689;53.400;12.486;2022-12-20T08:23:39;38.17;;;24.48;;
13244;SDS011;6689;53.400;12.486;2022-12-20T08:26:07;43.13;;;24.00;;
13244;SDS011;6689;53.400;12.486;2022-12-20T08:28:34;43.58;;;23.20;;
13244;SDS011;6689;53.400;12.486;2022-12-20T08:31:03;39.95;;;23.58;;
13244;SDS011;6689;53.400;12.486;2022-12-20T08:33:32;43.22;;;24.95;;
13244;SDS011;6689;53.400;12.486;2022-12-20T08:36:03;40.88;;;23.08;;
13244;SDS011;6689;53.400;12.486;2022-12-20T08:38:32;50.13;;;25.17;;
13244;SDS011;6689;53.400;12.486;2022-12-20T08:41:04;46.35;;;24.27;;
13244;SDS011;6689;53.400;12.486;2022-12-20T08:43:35;41.80;;;22.08;;
13244;SDS011;6689;53.400;12.486;2022-12-20T08:46:03;52.67;;;25.05;;
13244;SDS011;6689;53.400;12.486;2022-12-20T08:48:31;47.35;;;24.60;;
13244;SDS011;6689;53.400;12.486;2022-12-20T08:50:59;45.83;;;25.70;;
13244;SDS011;6689;53.400;12.486;2022-12-20T08:53:30;43.70;;;23.55;;
13244;SDS011;6689;53.400;12.486;2022-12-20T08:56:02;53.08;;;25.33;;
13244;SDS011;6689;53.400;12.486;2022-12-20T08:58:30;44.28;;;23.80;;
13244;SDS011;6689;53.400;12.486;2022-12-20T09:00:58;43.65;;;23.45;;
13244;SDS011;6689;53.400;12.486;2022-12-20T09:03:28;42.40;;;22.13;;
13244;SDS011;6689;53.400;12.486;2022-12-20T09:05:59;53.85;;;24.52;;
13244;SDS011;6689;53.400;12.486;2022-12-20T09:08:27;50.65;;;24.92;;
13244;SDS011;6689;53.400;12.486;2022-12-20T09:11:01;46.58;;;24.48;;
13244;SDS011;6689;53.400;12.486;2022-12-20T09:13:29;42.80;;;24.38;;
13244;SDS011;6689;53.400;12.486;2022-12-20T09:15:58;45.85;;;24.15;;
13244;SDS011;6689;53.400;12.486;2022-12-20T09:18:26;47.97;;;23.90;;
13244;SDS011;6689;53.400;12.486;2022-12-20T09:20:53;43.85;;;22.83;;
13244;SDS011;6689;53.400;12.486;2022-12-20T09:23:20;47.58;;;23.05;;
13244;SDS011;6689;53.400;12.486;2022-12-20T09:25:49;40.90;;;23.25;;
13244;SDS011;6689;53.400;12.486;2022-12-20T09:28:17;41.45;;;23.42;;
13244;SDS011;6689;53.400;12.486;2022-12-20T09:30:44;43.95;;;24.42;;
13244;SDS011;6689;53.400;12.486;2022-12-20T09:33:11;48.97;;;24.33;;
13244;SDS011;6689;53.400;12.486;2022-12-20T09:35:43;41.65;;;24.25;;
13244;SDS011;6689;53.400;12.486;2022-12-20T09:38:10;47.13;;;23.23;;
13244;SDS011;6689;53.400;12.486;2022-12-20T09:40:37;49.28;;;25.38;;
13244;SDS011;6689;53.400;12.486;2022-12-20T09:43:13;44.85;;;22.70;;
13244;SDS011;6689;53.400;12.486;2022-12-20T09:45:42;46.38;;;24.33;;
13244;SDS011;6689;53.400;12.486;2022-12-20T09:48:13;38.85;;;21.50;;
13244;SDS011;6689;53.400;12.486;2022-12-20T09:50:46;42.50;;;21.67;;
13244;SDS011;6689;53.400;12.486;2022-12-20T09:53:26;41.45;;;21.33;;
13244;SDS011;6689;53.400;12.486;2022-12-20T09:56:02;41.05;;;21.40;;
13244;SDS011;6689;53.400;12.486;2022-12-20T09:58:40;40.50;;;23.30;;
13244;SDS011;6689;53.400;12.486;2022-12-20T10:01:19;38.15;;;21.38;;
13244;SDS011;6689;53.400;12.486;2022-12-20T10:03:51;39.92;;;23.65;;
13244;SDS011;6689;53.400;12.486;2022-12-20T10:06:21;36.22;;;21.75;;
13244;SDS011;6689;53.400;12.486;2022-12-20T10:08:56;39.22;;;21.88;;
13244;SDS011;6689;53.400;12.486;2022-12-20T10:11:35;30.52;;;19.50;;
13244;SDS011;6689;53.400;12.486;2022-12-20T10:14:25;35.30;;;20.20;;
13244;SDS011;6689;53.400;12.486;2022-12-20T10:17:21;37.50;;;21.48;;
13244;SDS011;6689;53.400;12.486;2022-12-20T10:20:06;43.50;;;23.00;;
13244;SDS011;6689;53.400;12.486;2022-12-20T10:22:50;36.72;;;20.67;;
13244;SDS011;6689;53.400;12.486;2022-12-20T10:25:22;39.97;;;20.73;;
13244;SDS011;6689;53.400;12.486;2022-12-20T10:27:51;39.45;;;21.58;;
13244;SDS011;6689;53.400;12.486;2022-12-20T10:30:24;35.72;;;20.30;;
13244;SDS011;6689;53.400;12.486;2022-12-20T10:33:00;33.22;;;20.33;;
13244;SDS011;6689;53.400;12.486;2022-12-20T10:35:28;35.58;;;21.52;;
13244;SDS011;6689;53.400;12.486;2022-12-20T10:37:59;45.70;;;21.67;;
13244;SDS011;6689;53.400;12.486;2022-12-20T10:40:29;32.80;;;20.58;;
13244;SDS011;6689;53.400;12.486;2022-12-20T10:42:58;31.55;;;20.05;;
13244;SDS011;6689;53.400;12.486;2022-12-20T10:45:30;34.28;;;21.20;;
13244;SDS011;6689;53.400;12.486;2022-12-20T10:48:00;32.17;;;19.85;;
13244;SDS011;6689;53.400;12.486;2022-12-20T10:50:29;34.47;;;20.42;;
13244;SDS011;6689;53.400;12.486;2022-12-20T10:55:49;33.95;;;20.67;;
13244;SDS011;6689;53.400;12.486;2022-12-20T10:58:20;32.60;;;20.77;;
13244;SDS011;6689;53.400;12.486;2022-12-20T11:01:05;32.15;;;19.83;;
13244;SDS011;6689;53.400;12.486;2022-12-20T11:03:47;33.70;;;19.83;;
13244;SDS011;6689;53.400;12.486;2022-12-20T11:06:20;35.70;;;19.55;;
13244;SDS011;6689;53.400;12.486;2022-12-20T11:08:48;33.63;;;18.98;;
13244;SDS011;6689;53.400;12.486;2022-12-20T11:11:18;37.17;;;20.85;;
13244;SDS011;6689;53.400;12.486;2022-12-20T11:13:46;32.55;;;20.73;;
13244;SDS011;6689;53.400;12.486;2022-12-20T11:16:27;31.00;;;18.98;;
13244;SDS011;6689;53.400;12.486;2022-12-20T11:19:05;31.02;;;20.05;;
13244;SDS011;6689;53.400;12.486;2022-12-20T11:21:54;34.35;;;20.38;;
13244;SDS011;6689;53.400;12.486;2022-12-20T11:24:29;36.28;;;20.45;;
13244;SDS011;6689;53.400;12.486;2022-12-20T11:27:08;28.83;;;18.83;;
13244;SDS011;6689;53.400;12.486;2022-12-20T11:29:52;30.25;;;19.48;;
13244;SDS011;6689;53.400;12.486;2022-12-20T11:32:39;32.58;;;19.05;;
13244;SDS011;6689;53.400;12.486;2022-12-20T11:35:21;28.25;;;18.30;;
13244;SDS011;6689;53.400;12.486;2022-12-20T11:37:58;29.30;;;18.05;;
13244;SDS011;6689;53.400;12.486;2022-12-20T11:40:35;29.60;;;19.17;;
13244;SDS011;6689;53.400;12.486;2022-12-20T11:46:13;32.72;;;17.90;;
13244;SDS011;6689;53.400;12.486;2022-12-20T11:48:58;32.97;;;19.20;;
13244;SDS011;6689;53.400;12.486;2022-12-20T11:51:38;29.95;;;18.60;;
13244;SDS011;6689;53.400;12.486;2022-12-20T11:54:11;26.92;;;17.35;;
13244;SDS011;6689;53.400;12.486;2022-12-20T11:56:45;26.13;;;16.15;;
13244;SDS011;6689;53.400;12.486;2022-12-20T11:59:19;25.42;;;17.42;;
13244;SDS011;6689;53.400;12.486;2022-12-20T12:04:25;24.58;;;15.10;;
13244;SDS011;6689;53.400;12.486;2022-12-20T12:06:57;23.17;;;14.77;;
13244;SDS011;6689;53.400;12.486;2022-12-20T12:09:29;27.02;;;16.27;;
13244;SDS011;6689;53.400;12.486;2022-12-20T12:12:02;21.95;;;15.15;;
13244;SDS011;6689;53.400;12.486;2022-12-20T12:14:45;25.00;;;15.95;;
13244;SDS011;6689;53.400;12.486;2022-12-20T12:17:22;23.80;;;15.35;;
13244;SDS011;6689;53.400;12.486;2022-12-20T12:19:55;24.45;;;15.70;;
13244;SDS011;6689;53.400;12.486;2022-12-20T12:22:33;25.20;;;15.70;;
13244;SDS011;6689;53.400;12.486;2022-12-20T12:25:05;23.35;;;14.70;;
13244;SDS011;6689;53.400;12.486;2022-12-20T12:30:10;25.92;;;15.45;;
13244;SDS011;6689;53.400;12.486;2022-12-20T12:32:39;21.92;;;14.23;;
13244;SDS011;6689;53.400;12.486;2022-12-20T12:35:20;23.63;;;14.85;;
13244;SDS011;6689;53.400;12.486;2022-12-20T12:41:09;23.45;;;15.05;;
13244;SDS011;6689;53.400;12.486;2022-12-20T12:43:53;22.95;;;13.30;;
13244;SDS011;6689;53.400;12.486;2022-12-20T12:46:25;18.25;;;14.40;;
13244;SDS011;6689;53.400;12.486;2022-12-20T12:48:56;22.35;;;14.05;;
13244;SDS011;6689;53.400;12.486;2022-12-20T12:51:29;23.85;;;13.32;;
13244;SDS011;6689;53.400;12.486;2022-12-20T12:54:03;19.02;;;13.25;;
13244;SDS011;6689;53.400;12.486;2022-12-20T12:56:43;20.83;;;14.27;;
13244;SDS011;6689;53.400;12.486;2022-12-20T12:59:20;22.05;;;14.10;;
13244;SDS011;6689;53.400;12.486;2022-12-20T13:04:52;21.42;;;13.73;;
13244;SDS011;6689;53.400;12.486;2022-12-20T13:07:26;19.00;;;13.48;;
13244;SDS011;6689;53.400;12.486;2022-12-20T13:13:11;21.88;;;13.85;;
13244;SDS011;6689;53.400;12.486;2022-12-20T13:15:46;19.23;;;12.77;;
13244;SDS011;6689;53.400;12.486;2022-12-20T13:18:36;20.58;;;12.65;;
13244;SDS011;6689;53.400;12.486;2022-12-20T13:27:21;22.25;;;13.05;;
13244;SDS011;6689;53.400;12.486;2022-12-20T13:29:55;23.45;;;13.27;;
13244;SDS011;6689;53.400;12.486;2022-12-20T13:35:47;19.08;;;12.70;;
13244;SDS011;6689;53.400;12.486;2022-12-20T13:38:49;19.95;;;12.38;;
13244;SDS011;6689;53.400;12.486;2022-12-20T13:41:22;18.17;;;11.52;;
13244;SDS011;6689;53.400;12.486;2022-12-20T13:43:59;23.48;;;12.93;;
13244;SDS011;6689;53.400;12.486;2022-12-20T13:46:37;18.83;;;11.55;;
13244;SDS011;6689;53.400;12.486;2022-12-20T13:49:10;18.58;;;13.10;;
13244;SDS011;6689;53.400;12.486;2022-12-20T13:51:44;18.10;;;12.75;;
13244;SDS011;6689;53.400;12.486;2022-12-20T13:54:14;16.73;;;11.35;;
13244;SDS011;6689;53.400;12.486;2022-12-20T13:56:46;17.13;;;12.50;;
13244;SDS011;6689;53.400;12.486;2022-12-20T13:59:15;20.75;;;12.98;;
13244;SDS011;6689;53.400;12.486;2022-12-20T14:01:48;18.52;;;12.77;;
13244;SDS011;6689;53.400;12.486;2022-12-20T14:04:17;19.08;;;11.43;;
13244;SDS011;6689;53.400;12.486;2022-12-20T14:06:49;16.92;;;12.02;;
13244;SDS011;6689;53.400;12.486;2022-12-20T14:09:29;17.70;;;12.90;;
13244;SDS011;6689;53.400;12.486;2022-12-20T14:12:03;18.10;;;11.45;;
13244;SDS011;6689;53.400;12.486;2022-12-20T14:14:37;18.40;;;12.82;;
13244;SDS011;6689;53.400;12.486;2022-12-20T14:17:15;17.67;;;12.07;;
13244;SDS011;6689;53.400;12.486;2022-12-20T14:19:43;16.63;;;11.97;;
13244;SDS011;6689;53.400;12.486;2022-12-20T14:22:10;16.67;;;12.15;;
13244;SDS011;6689;53.400;12.486;2022-12-20T14:24:38;16.23;;;11.32;;
13244;SDS011;6689;53.400;12.486;2022-12-20T14:27:10;19.33;;;12.02;;
13244;SDS011;6689;53.400;12.486;2022-12-20T14:29:39;14.32;;;11.02;;
13244;SDS011;6689;53.400;12.486;2022-12-20T14:32:16;18.67;;;12.25;;
13244;SDS011;6689;53.400;12.486;2022-12-20T14:34:45;18.25;;;12.20;;
13244;SDS011;6689;53.400;12.486;2022-12-20T14:37:17;14.73;;;11.82;;
13244;SDS011;6689;53.400;12.486;2022-12-20T14:39:57;16.02;;;10.85;;
13244;SDS011;6689;53.400;12.486;2022-12-20T14:42:29;16.42;;;12.05;;
13244;SDS011;6689;53.400;12.486;2022-12-20T14:45:14;18.05;;;11.35;;
13244;SDS011;6689;53.400;12.486;2022-12-20T14:47:47;15.55;;;11.95;;
13244;SDS011;6689;53.400;12.486;2022-12-20T14:50:17;14.85;;;10.55;;
13244;SDS011;6689;53.400;12.486;2022-12-20T14:52:46;19.30;;;11.02;;
13244;SDS011;6689;53.400;12.486;2022-12-20T14:55:13;17.27;;;11.57;;
13244;SDS011;6689;53.400;12.486;2022-12-20T14:57:46;15.40;;;11.57;;
13244;SDS011;6689;53.400;12.486;2022-12-20T15:00:19;20.00;;;11.80;;
13244;SDS011;6689;53.400;12.486;2022-12-20T15:02:51;16.48;;;11.43;;
13244;SDS011;6689;53.400;12.486;2022-12-20T15:05:40;17.15;;;10.98;;
13244;SDS011;6689;53.400;12.486;2022-12-20T15:08:14;18.67;;;10.93;;
13244;SDS011;6689;53.400;12.486;2022-12-20T15:10:46;18.02;;;11.23;;
13244;SDS011;6689;53.400;12.486;2022-12-20T15:13:20;18.58;;;12.55;;
13244;SDS011;6689;53.400;12.486;2022-12-20T15:15:50;16.52;;;10.52;;
13244;SDS011;6689;53.400;12.486;2022-12-20T15:18:18;17.50;;;10.40;;